sensor_id;sensor_type;location;lat;lon;timestamp;pressure;altitude;pressure_sealevel;temperature;humidity
78337;BME280;67610;51.588;7.002;2023-03-20T00:00:47;101195.84;;;11.32;64.42
78337;BME280;67610;51.588;7.002;2023-03-20T00:03:14;101197.19;;;11.36;64.49
78337;BME280;67610;51.588;7.002;2023-03-20T00:05:40;101201.94;;;11.33;64.60
78337;BME280;67610;51.588;7.002;2023-03-20T00:08:06;101202.50;;;11.27;64.28
78337;BME280;67610;51.588;7.002;2023-03-20T00:10:39;101202.63;;;11.25;64.65
78337;BME280;67610;51.588;7.002;2023-03-20T00:13:12;101198.06;;;11.27;64.56
78337;BME280;67610;51.588;7.002;2023-03-20T00:15:40;101201.38;;;11.29;64.43
78337;BME280;67610;51.588;7.002;2023-03-20T00:18:16;101199.06;;;11.26;64.36
78337;BME280;67610;51.588;7.002;2023-03-20T00:20:44;101195.84;;;11.22;64.27
78337;BME280;67610;51.588;7.002;2023-03-20T00:23:10;101198.63;;;11.21;64.82
78337;BME280;67610;51.588;7.002;2023-03-20T00:25:36;101201.72;;;11.07;64.91
78337;BME280;67610;51.588;7.002;2023-03-20T00:28:57;101198.41;;;11.05;64.83
78337;BME280;67610;51.588;7.002;2023-03-20T00:30:57;101204.63;;;11.04;64.78
78337;BME280;67610;51.588;7.002;2023-03-20T00:33:23;101209.19;;;11.02;65.29
78337;BME280;67610;51.588;7.002;2023-03-20T00:35:48;101209.19;;;11.02;64.94
78337;BME280;67610;51.588;7.002;2023-03-20T00:38:13;101203.94;;;11.02;64.92
78337;BME280;67610;51.588;7.002;2023-03-20T00:40:39;101211.41;;;11.06;64.88
78337;BME280;67610;51.588;7.002;2023-03-20T00:43:05;101210.31;;;10.99;64.90
78337;BME280;67610;51.588;7.002;2023-03-20T00:45:32;101198.94;;;10.99;64.79
78337;BME280;67610;51.588;7.002;2023-03-20T00:47:59;101199.63;;;11.01;64.85
78337;BME280;67610;51.588;7.002;2023-03-20T00:50:29;101202.25;;;11.01;65.06
78337;BME280;67610;51.588;7.002;2023-03-20T00:52:56;101195.06;;;11.03;64.89
78337;BME280;67610;51.588;7.002;2023-03-20T00:55:24;101192.56;;;11.01;64.44
78337;BME280;67610;51.588;7.002;2023-03-20T00:57:53;101192.56;;;11.01;64.85
78337;BME280;67610;51.588;7.002;2023-03-20T01:02:45;101186.34;;;11.02;64.79
78337;BME280;67610;51.588;7.002;2023-03-20T01:05:12;101195.06;;;11.03;64.54
78337;BME280;67610;51.588;7.002;2023-03-20T01:07:38;101188.28;;;11.00;64.90
78337;BME280;67610;51.588;7.002;2023-03-20T01:10:04;101188.41;;;10.99;65.02
78337;BME280;67610;51.588;7.002;2023-03-20T01:12:30;101193.56;;;10.91;64.83
78337;BME280;67610;51.588;7.002;2023-03-20T01:14:57;101197.16;;;10.90;64.73
78337;BME280;67610;51.588;7.002;2023-03-20T01:17:24;101204.09;;;10.91;64.77
78337;BME280;67610;51.588;7.002;2023-03-20T01:19:51;101196.72;;;10.85;64.69
78337;BME280;67610;51.588;7.002;2023-03-20T01:22:18;101189.13;;;10.82;65.01
78337;BME280;67610;51.588;7.002;2023-03-20T01:24:44;101189.81;;;10.84;64.97
78337;BME280;67610;51.588;7.002;2023-03-20T01:27:14;101195.34;;;10.81;65.07
78337;BME280;67610;51.588;7.002;2023-03-20T01:29:42;101189.81;;;10.84;65.00
78337;BME280;67610;51.588;7.002;2023-03-20T01:32:15;101198.81;;;10.72;65.11
78337;BME280;67610;51.588;7.002;2023-03-20T01:34:41;101210.03;;;10.74;65.38
78337;BME280;67610;51.588;7.002;2023-03-20T01:37:13;101211.97;;;10.81;65.13
78337;BME280;67610;51.588;7.002;2023-03-20T01:39:39;101214.34;;;10.84;64.40
78337;BME280;67610;51.588;7.002;2023-03-20T01:42:05;101216.97;;;10.84;64.28
78337;BME280;67610;51.588;7.002;2023-03-20T01:44:34;101212.50;;;10.85;64.30
78337;BME280;67610;51.588;7.002;2023-03-20T01:47:01;101204.34;;;10.88;64.26
78337;BME280;67610;51.588;7.002;2023-03-20T01:51:53;101191.47;;;10.85;64.13
78337;BME280;67610;51.588;7.002;2023-03-20T01:54:26;101186.91;;;10.87;63.92
78337;BME280;67610;51.588;7.002;2023-03-20T01:57:02;101195.78;;;10.86;64.13
78337;BME280;67610;51.588;7.002;2023-03-20T01:59:49;101200.50;;;10.82;64.19
78337;BME280;67610;51.588;7.002;2023-03-20T02:02:18;101192.88;;;10.79;64.13
78337;BME280;67610;51.588;7.002;2023-03-20T02:04:47;101198.97;;;10.80;64.32
78337;BME280;67610;51.588;7.002;2023-03-20T02:07:15;101201.31;;;10.83;64.23
78337;BME280;67610;51.588;7.002;2023-03-20T02:09:42;101202.13;;;10.83;64.21
78337;BME280;67610;51.588;7.002;2023-03-20T02:12:07;101202.00;;;10.85;64.18
78337;BME280;67610;51.588;7.002;2023-03-20T02:14:34;101217.38;;;10.89;64.10
78337;BME280;67610;51.588;7.002;2023-03-20T02:17:02;101226.09;;;10.90;64.09
78337;BME280;67610;51.588;7.002;2023-03-20T02:44:34;101219.44;;;10.67;64.44
78337;BME280;67610;51.588;7.002;2023-03-20T02:47:25;101228.03;;;10.69;64.11
78337;BME280;67610;51.588;7.002;2023-03-20T02:50:11;101220.97;;;10.60;64.44
78337;BME280;67610;51.588;7.002;2023-03-20T03:00:49;101213.38;;;10.57;64.80
78337;BME280;67610;51.588;7.002;2023-03-20T03:03:36;101212.25;;;10.59;64.57
78337;BME280;67610;51.588;7.002;2023-03-20T03:06:11;101220.97;;;10.60;64.83
78337;BME280;67610;51.588;7.002;2023-03-20T03:08:46;101225.00;;;10.64;64.80
78337;BME280;67610;51.588;7.002;2023-03-20T03:11:13;101222.38;;;10.64;64.36
78337;BME280;67610;51.588;7.002;2023-03-20T03:13:44;101214.47;;;10.64;64.36
78337;BME280;67610;51.588;7.002;2023-03-20T03:16:16;101202.13;;;10.64;64.57
78337;BME280;67610;51.588;7.002;2023-03-20T03:18:45;101189.81;;;10.65;64.45
78337;BME280;67610;51.588;7.002;2023-03-20T03:21:12;101196.19;;;10.62;64.42
78337;BME280;67610;51.588;7.002;2023-03-20T03:23:44;101185.81;;;10.61;64.44
78337;BME280;67610;51.588;7.002;2023-03-20T03:26:20;101172.50;;;10.62;64.49
78337;BME280;67610;51.588;7.002;2023-03-20T03:28:49;101180.28;;;10.64;64.28
78337;BME280;67610;51.588;7.002;2023-03-20T03:31:18;101156.59;;;10.64;64.21
78337;BME280;67610;51.588;7.002;2023-03-20T03:33:47;101154.09;;;10.62;64.33
78337;BME280;67610;51.588;7.002;2023-03-20T03:39:44;101156.59;;;10.54;64.60
78337;BME280;67610;51.588;7.002;2023-03-20T03:42:24;101161.19;;;10.52;64.46
78337;BME280;67610;51.588;7.002;2023-03-20T03:50:22;101174.44;;;10.50;64.54
78337;BME280;67610;51.588;7.002;2023-03-20T03:52:53;101183.31;;;10.49;64.17
78337;BME280;67610;51.588;7.002;2023-03-20T03:55:24;101196.31;;;10.51;64.34
78337;BME280;67610;51.588;7.002;2023-03-20T03:58:16;101188.44;;;10.51;64.06
78337;BME280;67610;51.588;7.002;2023-03-20T04:00:45;101206.69;;;10.52;63.81
78337;BME280;67610;51.588;7.002;2023-03-20T04:03:15;101203.25;;;10.52;63.73
78337;BME280;67610;51.588;7.002;2023-03-20T04:05:43;101201.59;;;10.51;63.59
78337;BME280;67610;51.588;7.002;2023-03-20T04:08:10;101196.88;;;10.45;63.81
78337;BME280;67610;51.588;7.002;2023-03-20T04:10:35;101197.69;;;10.45;63.90
78337;BME280;67610;51.588;7.002;2023-03-20T04:13:01;101195.78;;;10.47;63.88
78337;BME280;67610;51.588;7.002;2023-03-20T04:15:26;101192.16;;;10.48;63.83
78337;BME280;67610;51.588;7.002;2023-03-20T04:17:52;101184.28;;;10.48;63.72
78337;BME280;67610;51.588;7.002;2023-03-20T04:20:18;101178.75;;;10.51;63.47
78337;BME280;67610;51.588;7.002;2023-03-20T04:22:44;101176.38;;;10.48;63.56
78337;BME280;67610;51.588;7.002;2023-03-20T04:25:19;101166.84;;;10.47;63.79
78337;BME280;67610;51.588;7.002;2023-03-20T04:27:45;101166.00;;;10.47;63.86
78337;BME280;67610;51.588;7.002;2023-03-20T04:30:11;101170.69;;;10.43;64.03
78337;BME280;67610;51.588;7.002;2023-03-20T04:32:37;101172.38;;;10.44;64.02
78337;BME280;67610;51.588;7.002;2023-03-20T04:35:03;101167.13;;;10.44;64.04
78337;BME280;67610;51.588;7.002;2023-03-20T04:37:29;101168.06;;;10.43;63.84
78337;BME280;67610;51.588;7.002;2023-03-20T04:39:55;101168.47;;;10.39;63.85
78337;BME280;67610;51.588;7.002;2023-03-20T04:42:20;101158.38;;;10.34;64.14
78337;BME280;67610;51.588;7.002;2023-03-20T04:44:46;101153.28;;;10.33;63.83
78337;BME280;67610;51.588;7.002;2023-03-20T04:47:12;101145.09;;;10.26;64.29
78337;BME280;67610;51.588;7.002;2023-03-20T04:49:38;101140.38;;;10.20;64.25
78337;BME280;67610;51.588;7.002;2023-03-20T04:52:03;101133.59;;;10.18;64.13
78337;BME280;67610;51.588;7.002;2023-03-20T04:54:29;101141.88;;;10.13;64.36
78337;BME280;67610;51.588;7.002;2023-03-20T04:56:54;101138.69;;;10.10;64.27
78337;BME280;67610;51.588;7.002;2023-03-20T04:59:20;101146.13;;;10.05;64.45
78337;BME280;67610;51.588;7.002;2023-03-20T05:01:45;101157.88;;;10.01;64.44
78337;BME280;67610;51.588;7.002;2023-03-20T05:04:11;101151.25;;;9.97;64.28
78337;BME280;67610;51.588;7.002;2023-03-20T05:06:36;101157.59;;;9.94;64.29
78337;BME280;67610;51.588;7.002;2023-03-20T05:09:02;101153.44;;;9.92;64.40
78337;BME280;67610;51.588;7.002;2023-03-20T05:11:28;101153.84;;;9.87;64.25
78337;BME280;67610;51.588;7.002;2023-03-20T05:13:54;101148.16;;;9.82;64.00
78337;BME280;67610;51.588;7.002;2023-03-20T05:16:19;101155.34;;;9.80;64.04
78337;BME280;67610;51.588;7.002;2023-03-20T05:18:45;101155.59;;;9.77;64.09
78337;BME280;67610;51.588;7.002;2023-03-20T05:21:10;101154.06;;;9.74;64.36
78337;BME280;67610;51.588;7.002;2023-03-20T05:23:37;101159.19;;;9.76;64.21
78337;BME280;67610;51.588;7.002;2023-03-20T05:26:03;101163.06;;;9.72;64.29
78337;BME280;67610;51.588;7.002;2023-03-20T05:28:28;101163.19;;;9.70;64.24
78337;BME280;67610;51.588;7.002;2023-03-20T05:30:54;101164.84;;;9.71;64.52
78337;BME280;67610;51.588;7.002;2023-03-20T05:33:20;101170.50;;;9.67;64.54
78337;BME280;67610;51.588;7.002;2023-03-20T05:35:46;101166.22;;;9.66;64.86
78337;BME280;67610;51.588;7.002;2023-03-20T05:38:11;101164.44;;;9.66;64.96
78337;BME280;67610;51.588;7.002;2023-03-20T05:40:37;101161.09;;;9.64;64.91
78337;BME280;67610;51.588;7.002;2023-03-20T05:43:02;101167.31;;;9.63;65.17
78337;BME280;67610;51.588;7.002;2023-03-20T05:45:28;101169.09;;;9.63;65.29
78337;BME280;67610;51.588;7.002;2023-03-20T05:47:55;101162.22;;;9.62;65.62
78337;BME280;67610;51.588;7.002;2023-03-20T05:50:20;101162.72;;;9.56;65.87
78337;BME280;67610;51.588;7.002;2023-03-20T05:52:47;101171.56;;;9.55;65.66
78337;BME280;67610;51.588;7.002;2023-03-20T05:55:13;101166.03;;;9.58;65.61
78337;BME280;67610;51.588;7.002;2023-03-20T05:57:39;101166.22;;;9.66;65.58
78337;BME280;67610;51.588;7.002;2023-03-20T06:00:05;101165.63;;;9.62;66.07
78337;BME280;67610;51.588;7.002;2023-03-20T06:02:30;101163.00;;;9.62;65.94
78337;BME280;67610;51.588;7.002;2023-03-20T06:04:56;101158.84;;;9.60;66.00
78337;BME280;67610;51.588;7.002;2023-03-20T06:07:21;101163.00;;;9.62;65.96
78337;BME280;67610;51.588;7.002;2023-03-20T06:09:47;101160.97;;;9.66;66.34
78337;BME280;67610;51.588;7.002;2023-03-20T06:12:12;101166.91;;;9.68;65.75
78337;BME280;67610;51.588;7.002;2023-03-20T06:14:37;101166.66;;;9.71;65.77
78337;BME280;67610;51.588;7.002;2023-03-20T06:17:03;101169.97;;;9.73;65.64
78337;BME280;67610;51.588;7.002;2023-03-20T06:19:28;101164.72;;;9.73;65.42
78337;BME280;67610;51.588;7.002;2023-03-20T06:21:54;101176.59;;;9.67;65.63
78337;BME280;67610;51.588;7.002;2023-03-20T06:24:19;101174.34;;;9.63;65.43
78337;BME280;67610;51.588;7.002;2023-03-20T06:26:45;101183.91;;;9.64;65.72
78337;BME280;67610;51.588;7.002;2023-03-20T06:29:10;101187.94;;;9.68;65.39
78337;BME280;67610;51.588;7.002;2023-03-20T06:31:35;101188.47;;;9.62;65.46
78337;BME280;67610;51.588;7.002;2023-03-20T06:34:01;101188.31;;;9.63;65.24
78337;BME280;67610;51.588;7.002;2023-03-20T06:36:26;101199.53;;;9.65;65.47
78337;BME280;67610;51.588;7.002;2023-03-20T06:38:52;101194.13;;;9.67;65.34
78337;BME280;67610;51.588;7.002;2023-03-20T06:41:18;101187.78;;;9.69;65.12
78337;BME280;67610;51.588;7.002;2023-03-20T06:43:44;101195.56;;;9.71;65.10
78337;BME280;67610;51.588;7.002;2023-03-20T06:46:10;101201.22;;;9.76;64.57
78337;BME280;67610;51.588;7.002;2023-03-20T06:48:35;101202.06;;;9.76;64.72
78337;BME280;67610;51.588;7.002;2023-03-20T06:51:01;101207.19;;;9.78;64.37
78337;BME280;67610;51.588;7.002;2023-03-20T06:53:26;101208.00;;;9.78;64.17
78337;BME280;67610;51.588;7.002;2023-03-20T06:55:53;101203.06;;;9.85;63.73
78337;BME280;67610;51.588;7.002;2023-03-20T06:58:19;101207.34;;;9.86;63.68
78337;BME280;67610;51.588;7.002;2023-03-20T07:00:44;101204.47;;;9.89;63.29
78337;BME280;67610;51.588;7.002;2023-03-20T07:03:10;101208.63;;;9.92;63.35
78337;BME280;67610;51.588;7.002;2023-03-20T07:05:36;101208.47;;;9.93;63.32
78337;BME280;67610;51.588;7.002;2023-03-20T07:08:03;101209.63;;;10.00;63.21
78337;BME280;67610;51.588;7.002;2023-03-20T07:10:29;101208.38;;;10.04;62.90
78337;BME280;67610;51.588;7.002;2023-03-20T07:12:54;101213.22;;;10.09;62.93
78337;BME280;67610;51.588;7.002;2023-03-20T07:15:20;101216.06;;;10.17;62.56
78337;BME280;67610;51.588;7.002;2023-03-20T07:17:45;101220.06;;;10.21;62.40
78337;BME280;67610;51.588;7.002;2023-03-20T07:20:12;101213.16;;;10.29;61.17
78337;BME280;67610;51.588;7.002;2023-03-20T07:22:39;101228.41;;;10.35;60.61
78337;BME280;67610;51.588;7.002;2023-03-20T07:25:07;101217.22;;;10.33;60.88
78337;BME280;67610;51.588;7.002;2023-03-20T07:27:35;101215.69;;;10.40;60.56
78337;BME280;67610;51.588;7.002;2023-03-20T07:30:04;101223.88;;;10.47;60.59
78337;BME280;67610;51.588;7.002;2023-03-20T07:32:31;101232.19;;;10.52;60.72
78337;BME280;67610;51.588;7.002;2023-03-20T07:34:57;101232.31;;;10.60;60.31
78337;BME280;67610;51.588;7.002;2023-03-20T07:37:22;101235.81;;;10.70;60.06
78337;BME280;67610;51.588;7.002;2023-03-20T07:39:48;101233.88;;;10.82;59.46
78337;BME280;67610;51.588;7.002;2023-03-20T07:42:14;101240.25;;;10.89;59.29
78337;BME280;67610;51.588;7.002;2023-03-20T07:44:40;101228.88;;;10.98;59.05
78337;BME280;67610;51.588;7.002;2023-03-20T07:47:05;101237.03;;;11.14;58.38
78337;BME280;67610;51.588;7.002;2023-03-20T07:49:32;101244.94;;;11.23;58.08
78337;BME280;67610;51.588;7.002;2023-03-20T07:51:57;101240.03;;;11.29;57.69
78337;BME280;67610;51.588;7.002;2023-03-20T07:54:23;101238.81;;;11.33;57.69
78337;BME280;67610;51.588;7.002;2023-03-20T07:56:49;101239.91;;;11.40;57.90
78337;BME280;67610;51.588;7.002;2023-03-20T07:59:15;101238.22;;;11.48;57.82
78337;BME280;67610;51.588;7.002;2023-03-20T08:01:41;101241.34;;;11.61;57.40
78337;BME280;67610;51.588;7.002;2023-03-20T08:04:06;101235.13;;;11.72;56.68
78337;BME280;67610;51.588;7.002;2023-03-20T08:06:32;101247.28;;;11.82;56.09
78337;BME280;67610;51.588;7.002;2023-03-20T08:09:01;101240.63;;;11.88;56.71
78337;BME280;67610;51.588;7.002;2023-03-20T08:11:26;101247.06;;;12.03;56.01
78337;BME280;67610;51.588;7.002;2023-03-20T08:13:52;101241.00;;;12.20;55.83
78337;BME280;67610;51.588;7.002;2023-03-20T08:16:17;101239.97;;;12.31;55.90
78337;BME280;67610;51.588;7.002;2023-03-20T08:18:42;101246.53;;;12.44;55.71
78337;BME280;67610;51.588;7.002;2023-03-20T08:21:08;101247.88;;;12.58;55.34
78337;BME280;67610;51.588;7.002;2023-03-20T08:23:34;101247.25;;;12.64;55.21
78337;BME280;67610;51.588;7.002;2023-03-20T08:25:59;101242.88;;;12.73;54.22
78337;BME280;67610;51.588;7.002;2023-03-20T08:28:24;101250.34;;;12.77;54.16
78337;BME280;67610;51.588;7.002;2023-03-20T08:30:50;101250.06;;;12.80;53.52
78337;BME280;67610;51.588;7.002;2023-03-20T08:33:17;101256.69;;;12.84;53.39
78337;BME280;67610;51.588;7.002;2023-03-20T08:35:42;101250.06;;;12.80;52.47
78337;BME280;67610;51.588;7.002;2023-03-20T08:38:11;101250.91;;;12.81;52.97
78337;BME280;67610;51.588;7.002;2023-03-20T08:40:43;101252.53;;;12.82;52.70
78337;BME280;67610;51.588;7.002;2023-03-20T08:43:08;101249.44;;;12.86;52.85
78337;BME280;67610;51.588;7.002;2023-03-20T08:45:34;101241.06;;;12.91;50.43
78337;BME280;67610;51.588;7.002;2023-03-20T08:48:01;101246.50;;;12.89;50.74
78337;BME280;67610;51.588;7.002;2023-03-20T08:50:26;101247.81;;;12.85;50.54
78337;BME280;67610;51.588;7.002;2023-03-20T08:52:51;101232.25;;;12.82;50.23
78337;BME280;67610;51.588;7.002;2023-03-20T08:55:17;101241.47;;;12.78;50.18
78337;BME280;67610;51.588;7.002;2023-03-20T08:57:44;101241.91;;;12.74;50.35
78337;BME280;67610;51.588;7.002;2023-03-20T09:00:12;101239.78;;;12.77;49.87
78337;BME280;67610;51.588;7.002;2023-03-20T09:02:38;101243.56;;;12.75;50.52
78337;BME280;67610;51.588;7.002;2023-03-20T09:05:04;101235.97;;;12.72;50.68
78337;BME280;67610;51.588;7.002;2023-03-20T09:07:31;101243.09;;;12.79;50.04
78337;BME280;67610;51.588;7.002;2023-03-20T09:09:56;101238.44;;;12.73;49.43
78337;BME280;67610;51.588;7.002;2023-03-20T09:12:21;101243.56;;;12.75;49.23
78337;BME280;67610;51.588;7.002;2023-03-20T09:14:47;101240.53;;;12.70;48.62
78337;BME280;67610;51.588;7.002;2023-03-20T09:17:12;101241.00;;;12.65;48.78
78337;BME280;67610;51.588;7.002;2023-03-20T09:19:38;101244.63;;;12.64;48.72
78337;BME280;67610;51.588;7.002;2023-03-20T09:22:06;101244.53;;;12.56;48.44
78337;BME280;67610;51.588;7.002;2023-03-20T09:24:32;101248.44;;;12.52;48.39
78337;BME280;67610;51.588;7.002;2023-03-20T09:26:57;101252.53;;;12.46;48.08
78337;BME280;67610;51.588;7.002;2023-03-20T09:29:25;101239.75;;;12.42;48.58
78337;BME280;67610;51.588;7.002;2023-03-20T09:31:52;101243.22;;;12.42;48.69
78337;BME280;67610;51.588;7.002;2023-03-20T09:34:18;101250.31;;;12.42;48.72
78337;BME280;67610;51.588;7.002;2023-03-20T09:36:44;101251.31;;;12.41;48.91
78337;BME280;67610;51.588;7.002;2023-03-20T09:39:09;101250.31;;;12.42;48.73
78337;BME280;67610;51.588;7.002;2023-03-20T09:41:35;101253.66;;;12.44;48.34
78337;BME280;67610;51.588;7.002;2023-03-20T09:47:15;101253.34;;;12.47;47.77
78337;BME280;67610;51.588;7.002;2023-03-20T09:53:00;101265.00;;;12.44;46.83
78337;BME280;67610;51.588;7.002;2023-03-20T09:55:39;101261.41;;;12.45;47.54
78337;BME280;67610;51.588;7.002;2023-03-20T09:58:11;101267.75;;;12.52;47.46
78337;BME280;67610;51.588;7.002;2023-03-20T10:00:39;101270.78;;;12.57;47.60
78337;BME280;67610;51.588;7.002;2023-03-20T10:03:21;101260.00;;;12.69;46.63
78337;BME280;67610;51.588;7.002;2023-03-20T10:05:58;101260.84;;;12.69;46.16
78337;BME280;67610;51.588;7.002;2023-03-20T10:08:29;101269.56;;;12.70;46.81
78337;BME280;67610;51.588;7.002;2023-03-20T10:21:42;101249.75;;;12.83;45.82
78337;BME280;67610;51.588;7.002;2023-03-20T10:24:33;101244.22;;;12.77;45.87
78337;BME280;67610;51.588;7.002;2023-03-20T10:27:20;101246.13;;;12.84;45.56
78337;BME280;67610;51.588;7.002;2023-03-20T10:29:56;101245.28;;;12.84;45.09
78337;BME280;67610;51.588;7.002;2023-03-20T10:35:03;101245.63;;;12.81;45.11
78337;BME280;67610;51.588;7.002;2023-03-20T10:37:54;101242.13;;;12.80;45.52
78337;BME280;67610;51.588;7.002;2023-03-20T10:40:31;101240.00;;;12.84;45.61
78337;BME280;67610;51.588;7.002;2023-03-20T10:43:19;101240.84;;;12.84;45.71
78337;BME280;67610;51.588;7.002;2023-03-20T10:50:55;101220.19;;;12.97;45.72
78337;BME280;67610;51.588;7.002;2023-03-20T10:55:54;101224.69;;;13.05;45.09
78337;BME280;67610;51.588;7.002;2023-03-20T10:58:25;101221.16;;;13.14;45.37
78337;BME280;67610;51.588;7.002;2023-03-20T11:00:54;101226.88;;;13.27;44.54
78337;BME280;67610;51.588;7.002;2023-03-20T11:03:28;101216.44;;;13.25;45.43
78337;BME280;67610;51.588;7.002;2023-03-20T11:06:02;101222.19;;;13.39;45.05
78337;BME280;67610;51.588;7.002;2023-03-20T11:08:45;101215.97;;;13.48;44.08
78337;BME280;67610;51.588;7.002;2023-03-20T11:11:12;101221.06;;;13.49;43.93
78337;BME280;67610;51.588;7.002;2023-03-20T11:13:40;101211.50;;;13.48;43.15
78337;BME280;67610;51.588;7.002;2023-03-20T11:16:22;101209.47;;;13.42;44.25
78337;BME280;67610;51.588;7.002;2023-03-20T11:18:49;101210.31;;;13.43;44.05
78337;BME280;67610;51.588;7.002;2023-03-20T11:21:26;101215.63;;;13.51;43.95
78337;BME280;67610;51.588;7.002;2023-03-20T11:23:53;101215.50;;;13.52;43.31
78337;BME280;67610;51.588;7.002;2023-03-20T11:26:36;101217.22;;;13.44;43.61
78337;BME280;67610;51.588;7.002;2023-03-20T11:29:09;101210.81;;;13.46;43.94
78337;BME280;67610;51.588;7.002;2023-03-20T11:31:40;101210.66;;;13.48;44.69
78337;BME280;67610;51.588;7.002;2023-03-20T11:36:32;101212.16;;;13.76;44.42
78337;BME280;67610;51.588;7.002;2023-03-20T11:39:22;101211.31;;;13.75;44.43
78337;BME280;67610;51.588;7.002;2023-03-20T11:41:53;101206.03;;;13.75;44.00
78337;BME280;67610;51.588;7.002;2023-03-20T11:44:29;101211.13;;;13.69;44.33
78337;BME280;67610;51.588;7.002;2023-03-20T11:47:02;101205.13;;;13.67;44.12
78337;BME280;67610;51.588;7.002;2023-03-20T11:49:29;101208.13;;;13.64;44.62
78337;BME280;67610;51.588;7.002;2023-03-20T11:51:59;101199.53;;;13.62;44.93
78337;BME280;67610;51.588;7.002;2023-03-20T11:54:26;101203.59;;;13.56;44.72
78337;BME280;67610;51.588;7.002;2023-03-20T11:56:56;101210.34;;;13.51;45.06
78337;BME280;67610;51.588;7.002;2023-03-20T11:59:30;101213.97;;;13.50;44.74
78337;BME280;67610;51.588;7.002;2023-03-20T12:01:59;101211.66;;;13.47;44.91
78337;BME280;67610;51.588;7.002;2023-03-20T12:04:32;101211.91;;;13.36;44.77
78337;BME280;67610;51.588;7.002;2023-03-20T12:09:40;101207.28;;;13.38;45.10
78337;BME280;67610;51.588;7.002;2023-03-20T12:12:12;101199.34;;;13.29;45.52
78337;BME280;67610;51.588;7.002;2023-03-20T12:20:25;101204.50;;;13.39;45.29
78337;BME280;67610;51.588;7.002;2023-03-20T12:28:01;101208.34;;;13.45;45.26
78337;BME280;67610;51.588;7.002;2023-03-20T12:33:22;101210.00;;;13.46;45.49
78337;BME280;67610;51.588;7.002;2023-03-20T12:35:52;101198.50;;;13.55;45.85
78337;BME280;67610;51.588;7.002;2023-03-20T12:40:54;101198.38;;;13.64;45.90
78337;BME280;67610;51.588;7.002;2023-03-20T12:43:24;101185.78;;;13.58;46.35
78337;BME280;67610;51.588;7.002;2023-03-20T12:49:15;101189.53;;;13.48;46.13
78337;BME280;67610;51.588;7.002;2023-03-20T13:05:02;101174.94;;;13.44;47.35
78337;BME280;67610;51.588;7.002;2023-03-20T13:10:38;101170.91;;;13.57;48.04
78337;BME280;67610;51.588;7.002;2023-03-20T13:13:53;101171.63;;;13.42;48.33
78337;BME280;67610;51.588;7.002;2023-03-20T13:17:00;101170.69;;;13.51;48.13
78337;BME280;67610;51.588;7.002;2023-03-20T13:19:36;101168.41;;;13.56;47.57
78337;BME280;67610;51.588;7.002;2023-03-20T13:22:10;101164.81;;;13.57;46.64
78337;BME280;67610;51.588;7.002;2023-03-20T13:24:49;101162.94;;;13.49;47.06
78337;BME280;67610;51.588;7.002;2023-03-20T13:32:56;101164.50;;;13.60;47.38
78337;BME280;67610;51.588;7.002;2023-03-20T13:35:39;101160.72;;;13.70;47.73
78337;BME280;67610;51.588;7.002;2023-03-20T13:38:34;101162.25;;;13.81;47.63
78337;BME280;67610;51.588;7.002;2023-03-20T13:41:03;101159.94;;;13.78;47.00
78337;BME280;67610;51.588;7.002;2023-03-20T13:43:34;101156.28;;;13.71;46.94
78337;BME280;67610;51.588;7.002;2023-03-20T13:46:02;101156.50;;;13.52;47.35
78337;BME280;67610;51.588;7.002;2023-03-20T13:48:41;101156.16;;;13.47;47.64
78337;BME280;67610;51.588;7.002;2023-03-20T14:02:16;101155.31;;;13.20;49.87
78337;BME280;67610;51.588;7.002;2023-03-20T14:04:48;101143.50;;;13.24;49.56
78337;BME280;67610;51.588;7.002;2023-03-20T14:07:36;101136.91;;;13.28;48.63
78337;BME280;67610;51.588;7.002;2023-03-20T14:12:53;101136.63;;;13.14;48.41
78337;BME280;67610;51.588;7.002;2023-03-20T14:15:22;101141.41;;;13.10;48.47
78337;BME280;67610;51.588;7.002;2023-03-20T14:17:51;101142.25;;;13.11;48.20
78337;BME280;67610;51.588;7.002;2023-03-20T14:20:43;101132.16;;;13.06;49.16
78337;BME280;67610;51.588;7.002;2023-03-20T14:23:17;101130.41;;;12.97;50.01
78337;BME280;67610;51.588;7.002;2023-03-20T14:25:43;101125.91;;;12.90;50.88
78337;BME280;67610;51.588;7.002;2023-03-20T14:43:54;101113.28;;;13.01;51.31
78337;BME280;67610;51.588;7.002;2023-03-20T14:51:49;101106.28;;;12.92;51.79
78337;BME280;67610;51.588;7.002;2023-03-20T14:56:43;101108.00;;;13.01;51.93
78337;BME280;67610;51.588;7.002;2023-03-20T14:59:10;101104.34;;;13.02;51.61
78337;BME280;67610;51.588;7.002;2023-03-20T15:06:32;101090.91;;;12.88;51.94
78337;BME280;67610;51.588;7.002;2023-03-20T15:09:09;101089.91;;;12.89;51.75
78337;BME280;67610;51.588;7.002;2023-03-20T15:11:36;101083.78;;;12.88;51.95
78337;BME280;67610;51.588;7.002;2023-03-20T15:14:05;101086.59;;;12.87;51.97
78337;BME280;67610;51.588;7.002;2023-03-20T15:16:34;101087.72;;;12.84;52.45
78337;BME280;67610;51.588;7.002;2023-03-20T15:19:05;101078.84;;;12.85;52.73
78337;BME280;67610;51.588;7.002;2023-03-20T15:21:40;101074.69;;;12.83;53.59
78337;BME280;67610;51.588;7.002;2023-03-20T15:24:16;101070.19;;;12.75;54.11
78337;BME280;67610;51.588;7.002;2023-03-20T15:26:43;101083.19;;;12.69;54.37
78337;BME280;67610;51.588;7.002;2023-03-20T15:29:15;101077.69;;;12.62;54.96
78337;BME280;67610;51.588;7.002;2023-03-20T15:31:42;101075.81;;;12.54;55.32
78337;BME280;67610;51.588;7.002;2023-03-20T15:34:14;101071.66;;;12.52;56.02
78337;BME280;67610;51.588;7.002;2023-03-20T15:36:41;101070.84;;;12.51;56.13
78337;BME280;67610;51.588;7.002;2023-03-20T15:39:13;101071.16;;;12.48;55.78
78337;BME280;67610;51.588;7.002;2023-03-20T15:41:44;101068.97;;;12.44;56.42
78337;BME280;67610;51.588;7.002;2023-03-20T15:44:17;101063.53;;;12.45;56.28
78337;BME280;67610;51.588;7.002;2023-03-20T15:49:31;101059.94;;;12.29;56.67